KORL/ORL METAR and TAF weather

Enter ICAO airport designator
Station Type Date Time Source
KORL METAR 2020/04/03 07:53 UTC NOAA

KORL 030753Z AUTO 00000KT 10SM CLR 16/12 A2997 RMK AO2 SLP153 T01610117


Station Type Date Time Source
KORL Decoded METAR 2020/04/03 07:53 UTC NOAA

ORLANDO EXECUTIVE AIRPORT, FL, United States (KORL) 28-33N 081-20W 37M
Apr 03, 2020 - 03:53 AM EDT / 2020.04.03 0753 UTC
Wind: Calm:0
Visibility: 10 mile(s):0
Sky conditions: clear
Temperature: 61.0 F (16.1 C)
Dew Point: 53.1 F (11.7 C)
Relative Humidity: 75%
Pressure (altimeter): 29.97 in. Hg (1014 hPa)
ob: KORL 030753Z AUTO 00000KT 10SM CLR 16/12 A2997 RMK AO2 SLP153 T01610117
cycle: 8

Station Type Date Time Source
KORL TAF UTC NOAA

Error!

Example: see airport list